Time;durP1;ratioP1;P1;durP2;ratioP2;P2;SDS_P1;SDS_P2;PMS_P1;PMS_P2;Temp;Humidity;BMP_temperature;BMP_pressure;BME280_temperature;BME280_humidity;BME280_pressure;Samples;Min_cycle;Max_cycle;Signal;HPM_P1;HPM_P2
2023/12/04 00:00:59;;;;;;;18.17;12.40;;;-0.40;99.90;;;;;;5076279;28;20205;-64
2023/12/04 00:03:26;;;;;;;16.15;11.93;;;-0.50;99.90;;;;;;5076134;28;20205;-61
2023/12/04 00:05:53;;;;;;;21.55;11.73;;;-0.50;99.90;;;;;;5076235;28;20200;-64
2023/12/04 00:08:19;;;;;;;24.10;12.32;;;-0.50;99.90;;;;;;5076204;28;20201;-64
2023/12/04 00:10:46;;;;;;;17.15;10.13;;;-0.40;99.90;;;;;;5077389;28;20216;-64
2023/12/04 00:13:14;;;;;;;17.33;12.30;;;-0.40;99.90;;;;;;5076690;28;20208;-64
2023/12/04 00:15:41;;;;;;;19.35;10.40;;;-0.40;99.90;;;;;;5080236;28;20208;-64
2023/12/04 00:18:08;;;;;;;22.88;13.38;;;-0.40;99.90;;;;;;5078008;28;20711;-63
2023/12/04 00:20:35;;;;;;;17.63;11.60;;;-0.40;99.90;;;;;;5077386;28;20205;-65
2023/12/04 00:23:02;;;;;;;18.50;13.05;;;-0.40;99.90;;;;;;5076566;28;20256;-63
2023/12/04 00:25:28;;;;;;;16.48;9.88;;;-0.40;99.90;;;;;;5076785;28;20679;-64
2023/12/04 00:27:55;;;;;;;20.58;11.55;;;-0.40;99.90;;;;;;5078008;28;20675;-65
2023/12/04 00:30:24;;;;;;;21.58;12.85;;;-0.30;99.90;;;;;;5080956;28;20196;-65
2023/12/04 00:32:50;;;;;;;17.00;11.95;;;-0.30;99.90;;;;;;5080799;28;20649;-64
2023/12/04 00:35:17;;;;;;;15.45;10.90;;;-0.30;99.90;;;;;;5081195;28;20196;-63
2023/12/04 00:37:44;;;;;;;18.75;12.50;;;-0.30;99.90;;;;;;5080603;28;20216;-64
2023/12/04 00:40:11;;;;;;;18.13;12.95;;;-0.30;99.90;;;;;;5080944;28;20741;-65
2023/12/04 00:42:38;;;;;;;18.33;11.60;;;-0.40;99.90;;;;;;5081244;28;20227;-64
2023/12/04 00:45:06;;;;;;;17.38;11.55;;;-0.30;99.90;;;;;;5081666;28;20687;-64
2023/12/04 00:47:34;;;;;;;16.88;11.35;;;-0.40;99.90;;;;;;5082444;28;20224;-64
2023/12/04 00:50:01;;;;;;;21.55;13.02;;;-0.30;99.90;;;;;;5082322;28;20207;-64
2023/12/04 00:52:27;;;;;;;18.02;11.98;;;-0.30;99.90;;;;;;5081520;28;20705;-64
2023/12/04 00:54:54;;;;;;;18.27;11.07;;;-0.30;99.90;;;;;;5079049;28;20201;-64
2023/12/04 00:57:21;;;;;;;17.48;10.95;;;-0.30;99.90;;;;;;5079007;28;20314;-65
2023/12/04 00:59:48;;;;;;;20.60;12.85;;;-0.30;99.90;;;;;;5078943;28;20212;-64
2023/12/04 01:02:14;;;;;;;18.30;11.82;;;-0.30;99.90;;;;;;5080128;28;20702;-63
2023/12/04 01:04:42;;;;;;;19.05;12.27;;;-0.30;99.90;;;;;;5081009;28;20579;-64
2023/12/04 01:07:09;;;;;;;21.65;11.90;;;-0.30;99.90;;;;;;5083139;28;20207;-64
2023/12/04 01:09:36;;;;;;;18.90;12.63;;;-0.30;99.90;;;;;;5083295;28;20216;-64
2023/12/04 01:12:04;;;;;;;17.40;11.13;;;-0.30;99.90;;;;;;5082318;28;20232;-64
2023/12/04 01:14:31;;;;;;;17.10;11.45;;;-0.40;99.90;;;;;;5082033;28;20205;-63
2023/12/04 01:16:58;;;;;;;19.50;11.73;;;-0.40;99.90;;;;;;5081874;28;20201;-64
2023/12/04 01:19:25;;;;;;;19.67;11.25;;;-0.40;99.90;;;;;;5082722;28;20196;-64
2023/12/04 01:21:53;;;;;;;16.42;11.13;;;-0.30;99.90;;;;;;5081710;28;20221;-64
2023/12/04 01:24:20;;;;;;;18.67;9.90;;;-0.30;99.90;;;;;;5086951;28;20249;-65
2023/12/04 01:26:46;;;;;;;17.95;9.85;;;-0.30;99.90;;;;;;5090233;28;20284;-65
2023/12/04 01:29:13;;;;;;;15.43;11.02;;;-0.20;99.90;;;;;;5088774;28;20193;-64
2023/12/04 01:31:40;;;;;;;14.90;10.00;;;-0.20;99.90;;;;;;5083542;28;20706;-63
2023/12/04 01:34:07;;;;;;;19.23;11.35;;;-0.10;99.90;;;;;;5081823;28;20201;-63
2023/12/04 01:36:34;;;;;;;16.88;10.50;;;-0.10;99.90;;;;;;5081887;28;20201;-63
2023/12/04 01:39:03;;;;;;;16.35;9.90;;;-0.10;99.90;;;;;;5080547;28;20229;-63
2023/12/04 01:41:30;;;;;;;17.00;11.60;;;-0.20;99.90;;;;;;5080994;28;20221;-64
2023/12/04 01:43:56;;;;;;;16.92;10.45;;;-0.10;99.90;;;;;;5081006;28;20211;-63
2023/12/04 01:46:23;;;;;;;17.05;10.57;;;-0.10;99.90;;;;;;5081269;28;20205;-64
2023/12/04 01:48:51;;;;;;;15.57;10.05;;;-0.10;99.90;;;;;;5077929;28;20569;-64
2023/12/04 01:51:18;;;;;;;17.98;9.88;;;-0.10;99.90;;;;;;5079963;28;20221;-65
2023/12/04 01:53:45;;;;;;;15.00;9.80;;;-0.10;99.90;;;;;;5079025;28;20205;-64
2023/12/04 01:56:15;;;;;;;15.57;9.57;;;-0.10;99.90;;;;;;5080438;28;20555;-64
2023/12/04 01:58:43;;;;;;;12.88;8.95;;;-0.10;99.90;;;;;;5079155;28;20217;-64
2023/12/04 02:01:11;;;;;;;15.60;10.60;;;-0.10;99.90;;;;;;5079027;28;20242;-63
2023/12/04 02:03:38;;;;;;;14.90;10.40;;;-0.10;99.90;;;;;;5081699;28;20227;-64
2023/12/04 02:06:06;;;;;;;16.52;10.10;;;-0.10;99.90;;;;;;5080306;28;20217;-64
2023/12/04 02:08:33;;;;;;;13.85;9.70;;;-0.10;99.90;;;;;;5078157;28;20198;-65
2023/12/04 02:11:00;;;;;;;15.13;9.52;;;-0.10;99.90;;;;;;5079251;28;20212;-64
2023/12/04 02:13:28;;;;;;;15.90;8.70;;;-0.20;99.90;;;;;;5077619;28;20216;-64
2023/12/04 02:15:58;;;;;;;15.52;9.38;;;-0.20;99.90;;;;;;5078091;28;20205;-65
2023/12/04 02:18:26;;;;;;;14.27;9.45;;;-0.20;99.90;;;;;;5075673;28;20221;-64
2023/12/04 02:20:54;;;;;;;16.45;10.23;;;-0.20;99.90;;;;;;5075988;28;20212;-64
2023/12/04 02:23:20;;;;;;;13.15;8.93;;;-0.20;99.90;;;;;;5076674;28;20201;-64
2023/12/04 02:25:49;;;;;;;15.75;9.85;;;-0.20;99.90;;;;;;5076098;28;20228;-64
2023/12/04 02:28:18;;;;;;;19.10;10.80;;;-0.20;99.90;;;;;;5075998;28;20284;-64
2023/12/04 02:30:46;;;;;;;13.63;9.32;;;-0.20;99.90;;;;;;5076941;28;20201;-63
2023/12/04 02:33:14;;;;;;;16.45;10.27;;;-0.20;99.90;;;;;;5081484;28;20207;-65
2023/12/04 02:35:42;;;;;;;13.48;9.23;;;-0.20;99.90;;;;;;5083635;28;20201;-64
2023/12/04 02:38:10;;;;;;;15.23;10.18;;;-0.20;99.90;;;;;;5083743;28;20221;-64
2023/12/04 02:40:37;;;;;;;18.40;10.40;;;-0.20;99.90;;;;;;5081965;28;20292;-64
2023/12/04 02:43:05;;;;;;;15.65;10.25;;;-0.20;99.90;;;;;;5082589;28;20586;-63
2023/12/04 02:45:32;;;;;;;15.30;9.50;;;-0.20;99.90;;;;;;5076801;28;20205;-63
2023/12/04 02:47:58;;;;;;;18.25;10.25;;;-0.20;99.90;;;;;;5076300;28;20201;-63
2023/12/04 02:50:25;;;;;;;14.85;9.23;;;-0.20;99.90;;;;;;5075692;28;20197;-63
2023/12/04 02:52:52;;;;;;;17.27;10.70;;;-0.20;99.90;;;;;;5074783;28;20589;-64
2023/12/04 02:55:19;;;;;;;16.98;9.23;;;-0.20;99.90;;;;;;5075650;28;20545;-64
2023/12/04 02:57:45;;;;;;;19.48;11.52;;;-0.20;99.90;;;;;;5076482;28;20213;-65
2023/12/04 03:00:14;;;;;;;15.18;9.52;;;-0.20;99.90;;;;;;5085623;28;20618;-64
2023/12/04 03:02:41;;;;;;;15.00;9.82;;;-0.20;99.90;;;;;;5084790;22;20226;-68
2023/12/04 03:05:08;;;;;;;14.20;8.82;;;-0.10;99.90;;;;;;5053907;28;20198;-67
2023/12/04 03:07:34;;;;;;;14.65;10.00;;;-0.10;99.90;;;;;;5054206;28;20205;-68
2023/12/04 03:10:01;;;;;;;14.77;9.15;;;-0.10;99.90;;;;;;5054394;28;20198;-68
2023/12/04 03:12:28;;;;;;;14.80;9.25;;;0.00;99.90;;;;;;5055322;28;20232;-68
2023/12/04 03:14:55;;;;;;;15.55;10.50;;;0.00;99.90;;;;;;5054282;28;20297;-67
2023/12/04 03:17:23;;;;;;;14.75;8.60;;;0.00;99.90;;;;;;5054749;28;20205;-67
2023/12/04 03:19:50;;;;;;;13.25;10.18;;;0.00;99.90;;;;;;5054894;28;20229;-69
2023/12/04 03:22:18;;;;;;;14.70;10.65;;;0.00;99.90;;;;;;5054559;28;20230;-68
2023/12/04 03:24:45;;;;;;;15.38;9.45;;;0.10;99.90;;;;;;5053763;28;20202;-68
2023/12/04 03:27:12;;;;;;;11.98;8.60;;;0.10;99.90;;;;;;5054230;28;20588;-68
2023/12/04 03:29:39;;;;;;;17.83;10.15;;;0.10;99.90;;;;;;5053945;28;20193;-68
2023/12/04 03:32:06;;;;;;;13.85;9.07;;;0.20;99.90;;;;;;5054175;28;20218;-68
2023/12/04 03:34:34;;;;;;;16.73;9.57;;;0.20;99.90;;;;;;5053629;28;20205;-68
2023/12/04 03:37:01;;;;;;;15.27;9.50;;;0.20;99.90;;;;;;5053593;28;20580;-68
2023/12/04 03:39:27;;;;;;;13.05;9.07;;;0.20;99.90;;;;;;5053167;28;20722;-68
2023/12/04 03:41:54;;;;;;;13.25;9.10;;;0.20;99.90;;;;;;5053276;28;20247;-68
2023/12/04 03:44:21;;;;;;;15.27;10.20;;;0.20;99.90;;;;;;5053360;28;20203;-68
2023/12/04 03:46:48;;;;;;;12.00;9.57;;;0.20;99.90;;;;;;5053829;28;20198;-67
2023/12/04 03:49:14;;;;;;;18.73;10.65;;;0.20;99.90;;;;;;5053335;28;20323;-68
2023/12/04 03:51:43;;;;;;;19.58;10.48;;;0.20;99.90;;;;;;5053610;28;20222;-68
2023/12/04 03:54:09;;;;;;;13.02;8.93;;;0.20;99.90;;;;;;5054288;28;20202;-70
2023/12/04 03:56:36;;;;;;;17.00;9.60;;;0.20;99.90;;;;;;5053125;28;20206;-69
2023/12/04 03:59:03;;;;;;;16.95;9.60;;;0.20;99.90;;;;;;5053060;28;20218;-68
2023/12/04 04:01:30;;;;;;;13.65;9.23;;;0.30;99.90;;;;;;5052911;28;20279;-69
2023/12/04 04:03:57;;;;;;;13.50;9.73;;;0.30;99.90;;;;;;5053263;28;20202;-68
2023/12/04 04:06:23;;;;;;;13.25;8.95;;;0.30;99.90;;;;;;5053561;28;20201;-69
2023/12/04 04:08:52;;;;;;;12.23;8.60;;;0.30;99.90;;;;;;5053166;28;20193;-68
2023/12/04 04:12:42;;;;;;;15.75;9.80;;;0.20;99.90;;;;;;5111600;27;21161;-68
2023/12/04 04:15:10;;;;;;;13.73;9.80;;;0.20;99.90;;;;;;5111744;28;20200;-68
2023/12/04 04:17:37;;;;;;;11.90;8.73;;;0.20;99.90;;;;;;5111984;28;20565;-68
2023/12/04 04:20:04;;;;;;;14.25;9.40;;;0.20;99.90;;;;;;5111323;28;20218;-68
2023/12/04 04:22:34;;;;;;;14.57;9.68;;;0.20;99.90;;;;;;5109970;28;20597;-68
2023/12/04 04:25:01;;;;;;;21.23;8.95;;;0.10;99.90;;;;;;5111231;28;20249;-68
2023/12/04 04:27:28;;;;;;;14.93;10.23;;;0.10;99.90;;;;;;5110687;28;20283;-68
2023/12/04 04:29:56;;;;;;;17.23;9.63;;;0.10;99.90;;;;;;5110800;28;20203;-69
2023/12/04 04:32:22;;;;;;;14.57;10.23;;;0.10;99.90;;;;;;5111700;28;20233;-69
2023/12/04 04:34:50;;;;;;;12.20;8.80;;;0.10;99.90;;;;;;5110753;28;20231;-68
2023/12/04 04:37:16;;;;;;;11.88;8.95;;;0.10;99.90;;;;;;5111390;28;20211;-69
2023/12/04 04:39:43;;;;;;;13.85;9.10;;;0.10;99.90;;;;;;5110533;28;20203;-69
2023/12/04 04:42:10;;;;;;;15.40;9.93;;;0.20;99.90;;;;;;5111758;28;20212;-68
2023/12/04 04:44:37;;;;;;;13.40;9.55;;;0.20;99.90;;;;;;5111111;28;20674;-68
2023/12/04 04:47:05;;;;;;;12.75;9.55;;;0.20;99.90;;;;;;5110228;28;20677;-69
2023/12/04 04:49:32;;;;;;;11.90;8.70;;;0.20;99.90;;;;;;5110156;28;20233;-68
2023/12/04 04:51:59;;;;;;;13.63;9.85;;;0.20;99.90;;;;;;5110939;28;20716;-68
2023/12/04 04:54:26;;;;;;;14.30;9.50;;;0.30;99.90;;;;;;5113496;28;20290;-68
2023/12/04 04:56:52;;;;;;;15.27;8.55;;;0.30;99.90;;;;;;5113602;28;20225;-68
2023/12/04 04:59:19;;;;;;;13.55;8.48;;;0.30;99.90;;;;;;5113796;28;20228;-68
2023/12/04 05:01:46;;;;;;;12.45;8.80;;;0.40;99.90;;;;;;5106846;22;20325;-64
2023/12/04 05:04:14;;;;;;;14.90;8.23;;;0.40;99.90;;;;;;5051044;28;20573;-63
2023/12/04 05:06:41;;;;;;;15.57;10.10;;;0.40;99.90;;;;;;5050245;28;20210;-64
2023/12/04 05:09:08;;;;;;;16.50;9.63;;;0.40;99.90;;;;;;5051516;28;20565;-63
2023/12/04 05:11:34;;;;;;;13.40;9.38;;;0.40;99.90;;;;;;5050730;28;20248;-62
2023/12/04 05:14:01;;;;;;;13.95;9.68;;;0.40;99.90;;;;;;5050039;28;20743;-63
2023/12/04 05:16:28;;;;;;;12.13;8.35;;;0.40;99.90;;;;;;5050868;28;20210;-64
2023/12/04 05:18:55;;;;;;;14.07;9.95;;;0.40;99.90;;;;;;5050431;28;20202;-64
2023/12/04 05:21:23;;;;;;;14.80;8.88;;;0.40;99.90;;;;;;5050244;28;20214;-64
2023/12/04 05:23:50;;;;;;;14.30;8.35;;;0.40;99.90;;;;;;5037680;28;20206;-64
2023/12/04 05:26:16;;;;;;;12.32;8.63;;;0.40;99.90;;;;;;5037318;28;20225;-63
2023/12/04 05:28:43;;;;;;;14.38;8.93;;;0.40;99.90;;;;;;5036961;28;20682;-63
2023/12/04 05:31:10;;;;;;;12.65;9.40;;;0.40;99.90;;;;;;5036039;28;20703;-63
2023/12/04 05:33:37;;;;;;;14.13;8.73;;;0.50;99.90;;;;;;5036595;28;20306;-64
2023/12/04 05:36:04;;;;;;;12.15;8.65;;;0.50;99.90;;;;;;5036000;28;20676;-64
2023/12/04 05:38:33;;;;;;;11.27;8.63;;;0.50;99.90;;;;;;5041932;28;20198;-64
2023/12/04 05:41:00;;;;;;;15.02;7.78;;;0.40;99.90;;;;;;5037251;28;20258;-64
2023/12/04 05:43:27;;;;;;;13.40;8.80;;;0.40;99.90;;;;;;5036706;28;20198;-64
2023/12/04 05:45:53;;;;;;;15.45;9.52;;;0.50;99.90;;;;;;5037393;28;20198;-64
2023/12/04 05:48:20;;;;;;;12.07;8.93;;;0.50;99.90;;;;;;5035458;28;20206;-63
2023/12/04 05:50:47;;;;;;;15.38;8.30;;;0.50;99.90;;;;;;5035204;28;20210;-64
2023/12/04 05:53:13;;;;;;;14.77;9.43;;;0.50;99.90;;;;;;5035394;28;20199;-63
2023/12/04 05:55:42;;;;;;;15.35;8.88;;;0.50;99.90;;;;;;5036067;28;20277;-64
2023/12/04 05:58:08;;;;;;;9.05;7.88;;;0.50;99.90;;;;;;5035783;28;20296;-63
2023/12/04 06:00:35;;;;;;;13.35;8.93;;;0.60;99.90;;;;;;5039234;28;20705;-64
2023/12/04 06:03:02;;;;;;;12.73;8.65;;;0.60;99.90;;;;;;5038837;28;20213;-63
2023/12/04 06:05:29;;;;;;;11.35;8.05;;;0.60;99.90;;;;;;5037632;28;20241;-64
2023/12/04 06:07:57;;;;;;;13.30;8.57;;;0.70;99.90;;;;;;5036225;28;20241;-63
2023/12/04 06:10:24;;;;;;;11.13;8.18;;;0.60;99.90;;;;;;5036659;28;20256;-64
2023/12/04 06:12:52;;;;;;;18.60;9.88;;;0.70;99.90;;;;;;5035438;28;20230;-63
2023/12/04 06:15:19;;;;;;;12.68;8.50;;;0.70;99.90;;;;;;5035700;28;20202;-63
2023/12/04 06:17:46;;;;;;;14.85;9.40;;;0.70;99.90;;;;;;5035772;28;20209;-62
2023/12/04 06:20:13;;;;;;;11.73;7.45;;;0.70;99.90;;;;;;5036020;28;20734;-64
2023/12/04 06:22:40;;;;;;;14.05;8.65;;;0.70;99.90;;;;;;5037019;28;20214;-63
2023/12/04 06:25:08;;;;;;;12.55;9.15;;;0.70;99.90;;;;;;5037791;28;20206;-63
2023/12/04 06:27:36;;;;;;;13.25;9.25;;;0.80;99.90;;;;;;5037217;28;20576;-63
2023/12/04 06:30:05;;;;;;;13.38;8.95;;;0.80;99.90;;;;;;5036589;28;20202;-64
2023/12/04 06:32:32;;;;;;;14.82;8.82;;;0.80;99.90;;;;;;5036441;28;20249;-63
2023/12/04 06:35:00;;;;;;;12.40;8.68;;;0.80;99.90;;;;;;5035511;28;20690;-63
2023/12/04 06:37:27;;;;;;;12.20;9.48;;;0.80;99.90;;;;;;5039651;28;20206;-63
2023/12/04 06:39:54;;;;;;;12.80;8.77;;;0.80;99.90;;;;;;5036703;28;20199;-65
2023/12/04 06:42:22;;;;;;;19.33;9.13;;;0.80;99.90;;;;;;5036884;28;20222;-64
2023/12/04 06:44:49;;;;;;;12.00;9.15;;;0.80;99.90;;;;;;5038097;28;20213;-64
2023/12/04 06:47:23;;;;;;;14.40;9.73;;;0.80;99.90;;;;;;5038583;28;20294;-65
2023/12/04 06:49:49;;;;;;;15.45;9.85;;;0.80;99.90;;;;;;5037657;28;20191;-63
2023/12/04 06:52:16;;;;;;;16.55;9.57;;;0.80;99.90;;;;;;5036873;28;20231;-64
2023/12/04 06:54:43;;;;;;;12.65;8.88;;;0.90;99.90;;;;;;5038327;28;20221;-63
2023/12/04 06:57:10;;;;;;;10.95;8.93;;;0.90;99.90;;;;;;5039354;28;20209;-64
2023/12/04 06:59:37;;;;;;;12.75;8.70;;;0.90;99.90;;;;;;5037959;28;20205;-64
2023/12/04 07:02:05;;;;;;;15.48;9.93;;;0.90;99.90;;;;;;5036832;28;20242;-64
2023/12/04 07:04:33;;;;;;;14.25;9.38;;;0.90;99.90;;;;;;5037776;28;20202;-64
2023/12/04 07:07:04;;;;;;;12.98;8.45;;;0.90;99.90;;;;;;5037884;28;20579;-63
2023/12/04 07:09:31;;;;;;;15.90;9.63;;;1.00;99.90;;;;;;5038283;28;20206;-64
2023/12/04 07:11:58;;;;;;;13.95;9.00;;;0.90;99.90;;;;;;5038862;28;20467;-64
2023/12/04 07:14:25;;;;;;;15.45;9.48;;;0.90;99.90;;;;;;5038497;28;20686;-65
2023/12/04 07:16:52;;;;;;;13.20;9.65;;;0.90;99.90;;;;;;5037196;28;20206;-63
2023/12/04 07:19:19;;;;;;;13.20;9.45;;;0.90;99.90;;;;;;5037614;28;20280;-63
2023/12/04 07:21:48;;;;;;;14.52;10.15;;;0.90;99.90;;;;;;5037503;28;20226;-64
2023/12/04 07:24:16;;;;;;;16.75;10.60;;;0.80;99.90;;;;;;5037557;28;20202;-64
2023/12/04 07:26:43;;;;;;;12.60;9.23;;;0.80;99.90;;;;;;5037103;28;20225;-64
2023/12/04 07:29:10;;;;;;;15.93;9.57;;;0.80;99.90;;;;;;5036397;28;20209;-65
2023/12/04 07:31:37;;;;;;;12.73;9.65;;;0.80;99.90;;;;;;5036735;28;20254;-64
2023/12/04 07:34:04;;;;;;;12.85;9.25;;;0.80;99.90;;;;;;5036206;28;20652;-65
2023/12/04 07:36:31;;;;;;;13.63;8.90;;;0.80;99.90;;;;;;5037788;28;20270;-64
2023/12/04 07:38:59;;;;;;;14.57;9.23;;;0.80;99.90;;;;;;5034724;28;20203;-63
2023/12/04 07:41:26;;;;;;;13.20;9.15;;;0.80;99.90;;;;;;5034706;28;20245;-65
2023/12/04 07:43:54;;;;;;;14.98;9.40;;;0.90;99.90;;;;;;5034598;28;20198;-64
2023/12/04 07:46:21;;;;;;;14.75;10.23;;;0.80;99.90;;;;;;5034652;28;20202;-65
2023/12/04 07:48:48;;;;;;;13.43;10.55;;;0.90;99.90;;;;;;5034075;28;20202;-64
2023/12/04 07:51:14;;;;;;;15.30;9.05;;;0.90;99.90;;;;;;5034703;28;20218;-64
2023/12/04 07:53:41;;;;;;;14.38;10.18;;;0.90;99.90;;;;;;5034289;28;20575;-64
2023/12/04 07:56:12;;;;;;;14.95;10.13;;;1.00;99.90;;;;;;5034612;28;20202;-64
2023/12/04 07:58:39;;;;;;;12.40;9.40;;;1.00;99.90;;;;;;5036020;28;20186;-65
2023/12/04 08:01:06;;;;;;;12.73;9.10;;;1.00;99.90;;;;;;5035394;28;20230;-65
2023/12/04 08:03:33;;;;;;;14.13;10.13;;;1.00;99.90;;;;;;5036249;28;20187;-65
2023/12/04 08:06:00;;;;;;;12.25;8.98;;;1.00;99.90;;;;;;5036618;28;20300;-65
2023/12/04 08:08:26;;;;;;;12.98;9.65;;;1.00;99.90;;;;;;5036225;28;20198;-64
2023/12/04 08:10:54;;;;;;;12.85;9.52;;;1.00;99.90;;;;;;5036433;28;20202;-64
2023/12/04 08:13:22;;;;;;;13.60;9.23;;;1.00;99.90;;;;;;5035539;28;20272;-65
2023/12/04 08:15:49;;;;;;;13.80;9.38;;;1.00;99.90;;;;;;5036895;28;20202;-64
2023/12/04 08:18:16;;;;;;;12.95;9.27;;;1.00;99.90;;;;;;5036718;28;20198;-64
2023/12/04 08:20:42;;;;;;;14.65;9.95;;;1.00;99.90;;;;;;5036876;28;20256;-63
2023/12/04 08:23:09;;;;;;;11.55;9.45;;;1.00;99.90;;;;;;5039665;28;20668;-65
2023/12/04 08:25:38;;;;;;;12.60;9.43;;;1.00;99.90;;;;;;5038197;28;20218;-65
2023/12/04 08:28:05;;;;;;;15.43;10.50;;;0.90;99.90;;;;;;5038117;28;20298;-64
2023/12/04 08:30:33;;;;;;;13.18;10.40;;;0.90;99.90;;;;;;5041921;28;20210;-64
2023/12/04 08:33:00;;;;;;;14.55;9.70;;;0.90;99.90;;;;;;5041093;28;20608;-64
2023/12/04 08:35:27;;;;;;;16.75;10.52;;;0.90;99.90;;;;;;5042680;28;20207;-65
2023/12/04 08:37:54;;;;;;;11.90;8.63;;;0.90;99.90;;;;;;5045294;28;20285;-63
2023/12/04 08:40:20;;;;;;;12.10;9.55;;;0.90;99.90;;;;;;5044838;28;20297;-62
2023/12/04 08:42:47;;;;;;;13.07;8.48;;;0.90;99.90;;;;;;5043338;28;20286;-65
2023/12/04 08:45:14;;;;;;;14.32;9.73;;;0.90;99.90;;;;;;5043801;28;20289;-63
2023/12/04 08:47:42;;;;;;;15.20;9.77;;;0.90;99.90;;;;;;5042203;28;20275;-62
2023/12/04 08:50:09;;;;;;;11.95;8.30;;;0.90;99.90;;;;;;5041263;28;20202;-63
2023/12/04 08:52:36;;;;;;;12.43;8.80;;;0.90;99.90;;;;;;5034407;28;20222;-62
2023/12/04 08:55:04;;;;;;;14.40;9.13;;;1.00;99.90;;;;;;5034279;28;20202;-63
2023/12/04 08:57:31;;;;;;;13.52;8.95;;;1.00;99.90;;;;;;5035645;28;20212;-63
2023/12/04 08:59:58;;;;;;;13.27;8.93;;;1.10;99.90;;;;;;5037883;28;20206;-63
2023/12/04 09:02:25;;;;;;;13.18;8.88;;;1.10;99.90;;;;;;5036547;28;20760;-63
2023/12/04 09:04:53;;;;;;;12.90;9.35;;;1.20;99.90;;;;;;5037065;28;20202;-61
2023/12/04 09:07:20;;;;;;;14.38;8.48;;;1.30;99.90;;;;;;5039271;28;20202;-62
2023/12/04 09:09:47;;;;;;;12.60;9.48;;;1.30;99.90;;;;;;5038877;28;20648;-63
2023/12/04 09:12:14;;;;;;;11.43;8.40;;;1.40;99.90;;;;;;5037893;28;20268;-62
2023/12/04 09:14:41;;;;;;;12.70;9.27;;;1.40;99.90;;;;;;5038140;28;20567;-63
2023/12/04 09:17:08;;;;;;;12.25;8.90;;;1.50;99.90;;;;;;5038349;28;20579;-63
2023/12/04 09:19:34;;;;;;;11.90;8.50;;;1.60;99.90;;;;;;5038779;28;20203;-60
2023/12/04 09:22:03;;;;;;;13.35;8.85;;;1.70;99.90;;;;;;5039687;28;20218;-63
2023/12/04 09:24:31;;;;;;;12.93;9.90;;;1.70;99.90;;;;;;5040089;28;20230;-62
2023/12/04 09:26:57;;;;;;;11.70;8.77;;;1.80;99.90;;;;;;5039094;28;20684;-63
2023/12/04 09:29:24;;;;;;;12.48;8.85;;;1.90;99.90;;;;;;5039738;28;20661;-63
2023/12/04 09:31:52;;;;;;;10.80;8.50;;;2.00;99.90;;;;;;5041319;28;20317;-64
2023/12/04 09:34:20;;;;;;;10.43;8.40;;;2.00;99.90;;;;;;5042111;28;20225;-64
2023/12/04 09:36:48;;;;;;;10.00;8.80;;;2.10;99.90;;;;;;5041846;28;20293;-63
2023/12/04 09:39:16;;;;;;;10.30;7.85;;;2.10;99.90;;;;;;5041074;28;20270;-63
2023/12/04 09:41:44;;;;;;;14.13;9.50;;;2.10;99.90;;;;;;5039403;28;20261;-63
2023/12/04 09:44:12;;;;;;;12.15;9.23;;;2.10;99.90;;;;;;5040933;28;20285;-62
2023/12/04 09:46:39;;;;;;;14.63;8.93;;;2.10;99.90;;;;;;5039249;28;20206;-62
2023/12/04 09:49:07;;;;;;;17.35;10.70;;;2.10;99.90;;;;;;5038778;28;20206;-62
2023/12/04 09:51:34;;;;;;;13.60;9.07;;;2.10;99.90;;;;;;5037993;28;20222;-64
2023/12/04 09:54:04;;;;;;;13.73;9.45;;;2.20;99.90;;;;;;5037379;28;20676;-62
2023/12/04 09:56:33;;;;;;;15.60;9.90;;;2.10;99.90;;;;;;5038086;28;20568;-63
2023/12/04 09:59:01;;;;;;;13.60;9.63;;;2.10;99.90;;;;;;5037659;28;20217;-63
2023/12/04 10:01:29;;;;;;;16.85;9.77;;;2.00;99.90;;;;;;5037663;28;20256;-64
2023/12/04 10:03:58;;;;;;;9.35;7.88;;;2.00;99.90;;;;;;5038945;28;20660;-62
2023/12/04 10:06:28;;;;;;;15.30;9.70;;;2.10;99.90;;;;;;5039731;28;20198;-63
2023/12/04 10:08:57;;;;;;;16.08;9.20;;;2.10;99.90;;;;;;5040185;28;20211;-64
2023/12/04 10:11:24;;;;;;;17.60;10.05;;;2.10;99.90;;;;;;5040221;28;20272;-63
2023/12/04 10:13:52;;;;;;;11.55;8.80;;;2.20;99.90;;;;;;5038324;28;20230;-64
2023/12/04 10:16:33;;;;;;;13.60;9.73;;;2.20;99.90;;;;;;5039207;28;20206;-63
2023/12/04 10:19:16;;;;;;;14.95;9.57;;;2.30;99.90;;;;;;5041987;28;20194;-64
2023/12/04 10:21:43;;;;;;;11.82;8.32;;;2.30;99.90;;;;;;5037280;28;20632;-62
2023/12/04 10:24:10;;;;;;;12.82;8.90;;;2.40;99.90;;;;;;5037363;28;20195;-65
2023/12/04 10:26:37;;;;;;;17.35;10.10;;;2.40;99.90;;;;;;5034942;28;20275;-65
2023/12/04 10:29:06;;;;;;;13.55;8.63;;;2.40;99.90;;;;;;5034708;28;20643;-64
2023/12/04 10:31:34;;;;;;;12.32;8.25;;;2.40;99.90;;;;;;5035485;28;20222;-64
2023/12/04 10:34:01;;;;;;;14.10;8.75;;;2.50;99.90;;;;;;5036031;28;20757;-64
2023/12/04 10:36:28;;;;;;;17.73;10.18;;;2.50;99.90;;;;;;5035789;28;20252;-63
2023/12/04 10:38:59;;;;;;;12.13;8.38;;;2.50;99.90;;;;;;5034414;28;20198;-65
2023/12/04 10:41:26;;;;;;;11.88;8.90;;;2.50;99.90;;;;;;5035239;28;20230;-64
2023/12/04 10:43:53;;;;;;;12.00;8.50;;;2.60;99.90;;;;;;5039394;28;20202;-64
2023/12/04 10:46:22;;;;;;;12.65;9.10;;;2.60;99.90;;;;;;5039687;28;20229;-64
2023/12/04 10:48:49;;;;;;;9.93;7.78;;;2.60;99.90;;;;;;5039764;28;20645;-64
2023/12/04 10:51:18;;;;;;;13.93;8.60;;;2.70;99.90;;;;;;5038311;28;20592;-63
2023/12/04 10:53:44;;;;;;;12.88;9.23;;;2.70;99.90;;;;;;5037157;28;20704;-64
2023/12/04 10:56:19;;;;;;;15.93;10.45;;;2.70;99.90;;;;;;5037709;28;20203;-64
2023/12/04 10:58:51;;;;;;;9.65;7.60;;;2.60;99.90;;;;;;5039463;28;20190;-63
2023/12/04 11:01:20;;;;;;;12.50;9.00;;;2.60;99.90;;;;;;5035108;28;20672;-64
2023/12/04 11:03:51;;;;;;;10.35;7.38;;;2.60;99.90;;;;;;5035314;28;20290;-65
2023/12/04 11:06:19;;;;;;;12.60;8.32;;;2.60;99.90;;;;;;5035003;28;20197;-64
2023/12/04 11:08:48;;;;;;;10.10;7.63;;;2.60;99.90;;;;;;5034736;28;20198;-63
2023/12/04 11:11:20;;;;;;;11.05;8.88;;;2.60;99.90;;;;;;5039018;28;20286;-63
2023/12/04 11:13:51;;;;;;;11.40;8.13;;;2.50;99.90;;;;;;5044412;28;20202;-65
2023/12/04 11:16:23;;;;;;;10.20;8.00;;;2.50;99.90;;;;;;5039784;28;20237;-63
2023/12/04 11:18:57;;;;;;;10.32;8.10;;;2.50;99.90;;;;;;5038127;28;20197;-63
2023/12/04 11:21:25;;;;;;;8.70;7.03;;;2.60;99.90;;;;;;5035402;28;20236;-63
2023/12/04 11:23:52;;;;;;;11.45;8.00;;;2.50;99.90;;;;;;5035105;28;20308;-63
2023/12/04 11:26:19;;;;;;;8.70;7.22;;;2.50;99.90;;;;;;5036549;28;20232;-63
2023/12/04 11:28:48;;;;;;;10.80;8.20;;;2.50;99.90;;;;;;5035334;28;20214;-62
2023/12/04 11:31:15;;;;;;;10.73;7.28;;;2.50;99.90;;;;;;5036045;28;20321;-62
2023/12/04 11:33:42;;;;;;;9.98;7.20;;;2.50;99.90;;;;;;5037829;28;20219;-63
2023/12/04 11:36:13;;;;;;;10.05;7.50;;;2.60;99.90;;;;;;5037649;28;20206;-61
2023/12/04 11:38:45;;;;;;;12.27;7.80;;;2.60;99.90;;;;;;5035604;28;20277;-63
2023/12/04 11:41:17;;;;;;;8.90;6.68;;;2.60;99.90;;;;;;5034350;28;20222;-61
2023/12/04 11:43:44;;;;;;;8.68;7.05;;;2.60;99.90;;;;;;5034943;28;20633;-62
2023/12/04 11:46:11;;;;;;;9.13;7.35;;;2.50;99.90;;;;;;5033852;28;20669;-63
2023/12/04 11:48:38;;;;;;;10.85;8.07;;;2.50;99.90;;;;;;5034991;28;20213;-63
2023/12/04 11:51:07;;;;;;;9.88;7.13;;;2.50;99.90;;;;;;5034751;28;20225;-63
2023/12/04 11:53:40;;;;;;;9.63;6.75;;;2.40;99.70;;;;;;5038870;28;20214;-61
2023/12/04 11:56:11;;;;;;;10.82;8.93;;;2.40;99.70;;;;;;5036828;28;20194;-63
2023/12/04 11:58:43;;;;;;;11.85;8.25;;;2.40;99.70;;;;;;5034691;28;20241;-63
2023/12/04 12:01:10;;;;;;;11.00;7.38;;;2.50;99.60;;;;;;5034576;28;20230;-62
2023/12/04 12:03:37;;;;;;;10.48;7.93;;;2.40;99.60;;;;;;5035292;28;20613;-62
2023/12/04 12:06:05;;;;;;;11.95;7.25;;;2.40;99.50;;;;;;5034376;28;20590;-62
2023/12/04 12:08:31;;;;;;;10.90;8.20;;;2.40;99.40;;;;;;5034198;28;20202;-63
2023/12/04 12:10:59;;;;;;;8.95;6.95;;;2.40;99.40;;;;;;5035698;28;20564;-62
2023/12/04 12:13:27;;;;;;;10.25;7.13;;;2.40;99.40;;;;;;5036965;28;20225;-62
2023/12/04 12:15:54;;;;;;;11.65;6.45;;;2.40;99.40;;;;;;5039226;28;20213;-61
2023/12/04 12:18:23;;;;;;;8.13;7.05;;;2.40;99.30;;;;;;5039369;28;20214;-63
2023/12/04 12:20:50;;;;;;;9.63;7.40;;;2.40;99.30;;;;;;5039112;28;20224;-63
2023/12/04 12:23:17;;;;;;;8.70;6.82;;;2.40;99.30;;;;;;5038733;28;20198;-63
2023/12/04 12:25:43;;;;;;;9.23;7.03;;;2.40;99.20;;;;;;5039479;28;20213;-63
2023/12/04 12:28:12;;;;;;;9.65;7.03;;;2.40;99.00;;;;;;5040612;28;20202;-63
2023/12/04 12:30:39;;;;;;;9.23;7.13;;;2.40;98.80;;;;;;5038554;28;20202;-63
2023/12/04 12:33:06;;;;;;;7.70;6.18;;;2.40;98.80;;;;;;5038675;28;20289;-62
2023/12/04 12:35:33;;;;;;;11.35;6.90;;;2.40;98.70;;;;;;5046483;28;20245;-63
2023/12/04 12:38:00;;;;;;;10.68;8.63;;;2.40;98.60;;;;;;5045485;28;20209;-63
2023/12/04 12:40:30;;;;;;;7.57;5.75;;;2.40;98.60;;;;;;5043172;28;20559;-63
2023/12/04 12:43:06;;;;;;;9.10;6.40;;;2.40;98.60;;;;;;5041299;28;20270;-63
2023/12/04 12:45:41;;;;;;;10.07;7.00;;;2.40;98.50;;;;;;5043160;28;20186;-61